Time;durP1;ratioP1;P1;durP2;ratioP2;P2;SDS_P1;SDS_P2;PMS_P1;PMS_P2;Temp;Humidity;BMP_temperature;BMP_pressure;BME280_temperature;BME280_humidity;BME280_pressure;Samples;Min_cycle;Max_cycle;Signal;HPM_P1;HPM_P2
2024/03/24 00:00:37;;;;;;;1.23;1.10;;;;;;;5.22;73.41;98119.50;5093074;28;42745;-79
2024/03/24 00:03:05;;;;;;;1.53;1.33;;;;;;;5.09;73.35;98100.06;5092864;28;42273;-81
2024/03/24 00:05:33;;;;;;;1.80;1.53;;;;;;;5.14;74.05;98111.19;5075698;28;38675;-77
2024/03/24 00:07:59;;;;;;;2.43;1.80;;;;;;;5.11;73.55;98111.34;5075732;28;42184;-77
2024/03/24 00:10:27;;;;;;;3.97;1.60;;;;;;;4.67;74.48;98041.06;5092221;28;43236;-79
2024/03/24 00:12:53;;;;;;;2.10;1.30;;;;;;;5.07;74.17;98108.97;5092466;28;40915;-79
2024/03/24 00:15:21;;;;;;;2.93;1.60;;;;;;;5.09;74.96;98107.09;5092425;28;39999;-77
2024/03/24 00:17:47;;;;;;;2.43;1.60;;;;;;;5.12;75.38;98097.31;5092379;28;41448;-78
2024/03/24 00:20:16;;;;;;;3.10;2.13;;;;;;;5.13;75.27;98085.88;5092993;28;42724;-80
2024/03/24 00:22:43;;;;;;;2.63;1.60;;;;;;;5.12;75.16;98071.06;5091417;28;42184;-78
2024/03/24 00:25:11;;;;;;;3.00;1.63;;;;;;;5.29;75.32;98086.75;5091525;28;40321;-80
2024/03/24 00:27:37;;;;;;;2.70;1.97;;;;;;;5.34;75.37;98087.34;5092304;28;42749;-79
2024/03/24 00:30:07;;;;;;;3.07;1.50;;;;;;;5.49;74.93;98084.84;5074011;28;43307;-79
2024/03/24 00:32:33;;;;;;;2.33;1.60;;;;;;;5.55;74.49;98074.00;5075271;28;41138;-83
2024/03/24 00:35:01;;;;;;;3.10;1.70;;;;;;;5.65;74.34;98077.81;5075233;28;38641;-81
2024/03/24 00:37:28;;;;;;;1.70;1.40;;;;;;;5.79;73.56;98085.78;5093187;28;41775;-79
2024/03/24 00:39:59;;;;;;;4.20;1.83;;;;;;;5.93;73.68;98087.69;5074647;28;44580;-77
2024/03/24 00:42:25;;;;;;;2.13;1.93;;;;;;;5.99;73.28;98090.81;5092779;28;43115;-77
2024/03/24 00:44:53;;;;;;;1.60;1.50;;;;;;;6.07;72.85;98082.47;5108704;28;39727;-79
2024/03/24 00:47:19;;;;;;;4.37;1.50;;;;;;;6.10;72.52;98075.28;5075175;28;40133;-80
2024/03/24 00:49:47;;;;;;;2.57;2.10;;;;;;;6.09;72.00;98070.94;5093062;28;43735;-80
2024/03/24 00:52:13;;;;;;;2.23;1.90;;;;;;;6.06;72.23;98071.09;5091888;28;43075;-78
2024/03/24 00:54:42;;;;;;;2.00;1.80;;;;;;;5.98;71.79;98062.81;5092884;28;39679;-79
2024/03/24 00:57:09;;;;;;;2.80;2.17;;;;;;;5.87;71.85;98062.56;5092718;28;41784;-80
2024/03/24 00:59:36;;;;;;;1.83;1.70;;;;;;;5.77;72.33;98075.38;5091120;28;42653;-78
2024/03/24 01:02:03;;;;;;;2.10;1.70;;;;;;;5.73;72.15;98063.31;5091500;28;42162;-78
2024/03/24 01:04:31;;;;;;;1.87;1.33;;;;;;;5.78;72.50;98065.69;5092803;28;39963;-76
2024/03/24 01:06:57;;;;;;;1.63;1.53;;;;;;;5.83;72.46;98066.28;5074464;28;40858;-81
2024/03/24 01:09:25;;;;;;;1.70;1.50;;;;;;;5.76;72.39;98036.88;5091259;28;41513;-79
2024/03/24 01:11:53;;;;;;;2.17;1.40;;;;;;;5.87;72.90;98054.66;5108707;28;41201;-80
2024/03/24 01:14:21;;;;;;;1.33;1.23;;;;;;;5.87;72.47;98048.56;5091632;28;40523;-77
2024/03/24 01:16:47;;;;;;;2.40;1.57;;;;;;;5.85;72.86;98035.50;5091004;28;43679;-78
2024/03/24 01:19:15;;;;;;;1.77;1.20;;;;;;;5.85;73.02;98035.50;5091971;28;43546;-78
2024/03/24 01:21:41;;;;;;;1.53;1.43;;;;;;;5.82;73.07;98017.28;5091219;28;42246;-78
2024/03/24 01:24:09;;;;;;;1.20;1.10;;;;;;;5.91;72.35;98031.75;5091312;28;42595;-80
2024/03/24 01:26:35;;;;;;;2.03;1.40;;;;;;;5.90;72.42;98023.00;5074023;28;41824;-75
2024/03/24 01:29:04;;;;;;;2.27;1.53;;;;;;;5.97;72.48;98029.59;5125205;27;43020;-77
2024/03/24 01:31:31;;;;;;;1.47;1.30;;;;;;;6.00;73.05;98021.53;5091774;28;42014;-77
2024/03/24 01:33:58;;;;;;;2.73;1.30;;;;;;;6.05;72.59;98016.88;5091094;28;40837;-76
2024/03/24 01:36:25;;;;;;;1.80;1.60;;;;;;;6.10;72.94;98014.81;5090752;28;40526;-79
2024/03/24 01:38:52;;;;;;;1.40;1.30;;;;;;;6.15;72.90;98013.72;5091240;28;43422;-77
2024/03/24 01:41:19;;;;;;;1.50;1.40;;;;;;;6.20;72.93;98011.66;5073993;28;42193;-76
2024/03/24 01:43:46;;;;;;;3.93;1.37;;;;;;;6.24;73.06;98007.91;5092588;28;40018;-79
2024/03/24 01:46:14;;;;;;;3.57;1.40;;;;;;;6.28;73.91;98001.53;5091389;28;41314;-80
2024/03/24 01:48:42;;;;;;;2.20;1.30;;;;;;;6.32;73.28;97996.00;5091332;28;42985;-79
2024/03/24 01:51:11;;;;;;;1.73;1.30;;;;;;;6.37;73.17;97996.59;5092073;28;41961;-78
2024/03/24 01:53:39;;;;;;;4.40;1.23;;;;;;;6.39;72.89;97999.13;5074135;28;38825;-78
2024/03/24 01:56:06;;;;;;;2.33;1.10;;;;;;;6.45;72.91;97998.75;5090269;28;41856;-77
2024/03/24 01:58:35;;;;;;;0.70;0.70;;;;;;;6.50;72.58;97991.44;5092212;28;43825;-79
2024/03/24 02:01:03;;;;;;;2.40;1.20;;;;;;;6.54;72.19;97998.22;5073470;28;41016;-78
2024/03/24 02:03:32;;;;;;;2.23;1.30;;;;;;;6.58;72.39;98001.50;5090934;28;41633;-77
2024/03/24 02:05:58;;;;;;;1.90;1.00;;;;;;;6.61;72.02;97998.69;5090342;28;42904;-76
2024/03/24 02:08:30;;;;;;;1.37;1.27;;;;;;;6.61;72.36;97994.28;5090584;28;41853;-79
2024/03/24 02:10:57;;;;;;;2.80;1.20;;;;;;;6.59;73.18;97983.00;5090591;28;42003;-77
2024/03/24 02:13:25;;;;;;;1.77;1.10;;;;;;;6.57;73.21;97984.88;5092161;28;40111;-78
2024/03/24 02:15:52;;;;;;;1.67;1.20;;;;;;;6.58;73.32;97981.28;5090618;28;41663;-78
2024/03/24 02:18:20;;;;;;;1.77;1.20;;;;;;;6.59;73.28;97975.09;5090525;28;41857;-78
2024/03/24 02:20:48;;;;;;;1.00;1.00;;;;;;;6.58;72.75;97976.03;5091737;28;43052;-78
2024/03/24 02:23:17;;;;;;;2.20;1.40;;;;;;;6.52;72.95;97947.50;5125223;27;41868;-78
2024/03/24 02:25:43;;;;;;;2.17;1.03;;;;;;;6.67;72.62;97962.34;5090092;28;43960;-77
2024/03/24 02:28:11;;;;;;;1.43;1.10;;;;;;;6.58;72.85;97957.63;5091774;28;43581;-79
2024/03/24 02:30:37;;;;;;;1.93;1.30;;;;;;;6.31;72.98;97910.16;5089600;28;40875;-80
2024/03/24 02:33:05;;;;;;;1.37;1.20;;;;;;;6.65;72.74;97958.09;5090507;28;39736;-79
2024/03/24 02:35:33;;;;;;;1.73;1.30;;;;;;;6.63;73.10;97963.47;5090171;28;40625;-78
2024/03/24 02:38:01;;;;;;;1.33;1.20;;;;;;;6.52;73.36;97944.00;5073835;28;41859;-76
2024/03/24 02:40:28;;;;;;;1.33;1.03;;;;;;;6.64;73.59;97962.53;5106827;28;43792;-78
2024/03/24 02:42:56;;;;;;;1.27;1.10;;;;;;;6.62;74.31;97948.63;5073536;28;41301;-76
2024/03/24 02:45:22;;;;;;;1.53;1.13;;;;;;;6.59;74.55;97942.69;5090231;28;41674;-76
2024/03/24 02:47:50;;;;;;;2.20;1.30;;;;;;;6.57;75.18;97945.41;5093746;28;42726;-76
2024/03/24 02:50:16;;;;;;;0.80;0.80;;;;;;;6.57;75.78;97937.50;5093463;28;41184;-79
2024/03/24 02:52:44;;;;;;;1.10;1.00;;;;;;;6.47;76.09;97918.81;5093734;28;38731;-77
2024/03/24 02:55:10;;;;;;;1.17;1.10;;;;;;;6.57;76.23;97932.25;5093549;28;42036;-76
2024/03/24 02:57:39;;;;;;;1.33;1.23;;;;;;;6.58;76.32;97939.22;5093991;28;43804;-80
2024/03/24 03:00:08;;;;;;;1.50;1.33;;;;;;;6.46;77.20;97914.50;5092556;28;41280;-78
2024/03/24 03:02:36;;;;;;;1.80;1.60;;;;;;;6.53;77.76;97920.25;5094831;28;40252;-80
2024/03/24 03:05:04;;;;;;;1.40;1.30;;;;;;;6.37;77.99;97890.56;5076930;28;41956;-80
2024/03/24 03:07:31;;;;;;;2.80;1.50;;;;;;;6.37;77.59;97895.81;5094954;28;42768;-76
2024/03/24 03:09:58;;;;;;;1.40;1.30;;;;;;;6.44;77.46;97897.97;5127136;27;43133;-76
2024/03/24 03:12:25;;;;;;;1.40;1.30;;;;;;;6.43;77.07;97900.69;5077000;28;40030;-79
2024/03/24 03:14:53;;;;;;;1.70;1.60;;;;;;;6.41;77.44;97894.69;5076716;28;40133;-79
2024/03/24 03:17:20;;;;;;;1.20;1.10;;;;;;;6.29;77.12;97893.66;5094448;28;43779;-78
2024/03/24 03:19:47;;;;;;;1.30;1.20;;;;;;;6.18;77.41;97884.72;5094809;28;42261;-78
2024/03/24 03:22:14;;;;;;;1.10;1.00;;;;;;;6.22;78.16;97888.84;5094913;28;40145;-78
2024/03/24 03:24:41;;;;;;;1.87;1.33;;;;;;;6.12;77.93;97876.28;5093015;28;41040;-78
2024/03/24 03:27:11;;;;;;;1.67;1.07;;;;;;;6.20;77.87;97896.81;5093625;28;42804;-77
2024/03/24 03:29:37;;;;;;;1.10;1.00;;;;;;;6.22;78.46;97891.47;5093683;28;43194;-76
2024/03/24 03:32:07;;;;;;;1.33;1.07;;;;;;;6.21;78.13;97895.03;5093157;28;38477;-78
2024/03/24 03:34:34;;;;;;;1.10;1.00;;;;;;;6.17;77.64;97904.06;5093695;28;42521;-78
2024/03/24 03:37:01;;;;;;;1.30;1.17;;;;;;;6.18;77.43;97900.50;5094323;28;42932;-75
2024/03/24 03:39:28;;;;;;;1.33;1.03;;;;;;;6.17;77.44;97896.19;5092610;28;42347;-78
2024/03/24 03:41:56;;;;;;;1.43;0.80;;;;;;;6.18;77.26;97895.25;5094429;28;40975;-80
2024/03/24 03:44:23;;;;;;;0.93;0.83;;;;;;;6.15;77.26;97890.16;5076214;28;40705;-79
2024/03/24 03:46:49;;;;;;;1.20;0.80;;;;;;;6.12;77.66;97897.28;5093864;28;43390;-76
2024/03/24 03:49:18;;;;;;;1.00;0.90;;;;;;;6.13;76.89;97899.00;5093144;28;43518;-77
2024/03/24 03:51:46;;;;;;;1.03;1.03;;;;;;;6.15;77.53;97900.69;5093792;28;40153;-77
2024/03/24 03:54:14;;;;;;;1.10;1.00;;;;;;;6.16;77.28;97892.72;5075863;28;41939;-78
2024/03/24 03:56:41;;;;;;;1.40;1.00;;;;;;;6.18;77.43;97895.25;5075186;28;42049;-80
2024/03/24 03:59:09;;;;;;;1.17;0.87;;;;;;;6.19;76.85;97891.66;5092260;28;41405;-78
2024/03/24 04:01:35;;;;;;;0.90;0.90;;;;;;;6.21;77.13;97897.66;5075445;28;39965;-76
2024/03/24 04:04:02;;;;;;;1.83;1.00;;;;;;;6.21;77.46;97884.53;5092840;28;42216;-80
2024/03/24 04:06:31;;;;;;;1.20;1.10;;;;;;;6.22;76.97;97891.47;5092308;28;42949;-79
2024/03/24 04:09:02;;;;;;;1.50;0.90;;;;;;;6.23;77.11;97893.16;5075436;28;42208;-79
2024/03/24 04:11:29;;;;;;;1.10;1.00;;;;;;;6.24;76.62;97889.59;5092457;28;39171;-78
2024/03/24 04:13:56;;;;;;;1.70;1.10;;;;;;;6.15;76.73;97869.13;5093780;28;41993;-76
2024/03/24 04:16:23;;;;;;;2.83;1.20;;;;;;;6.29;76.43;97882.31;5075100;28;41977;-79
2024/03/24 04:18:50;;;;;;;1.10;1.00;;;;;;;6.29;76.94;97884.94;5075154;28;42129;-77
2024/03/24 04:21:17;;;;;;;1.13;1.07;;;;;;;6.30;76.72;97879.59;5092159;28;39995;-78
2024/03/24 04:23:45;;;;;;;1.00;0.90;;;;;;;6.32;76.72;97884.72;5092446;28;41557;-79
2024/03/24 04:26:12;;;;;;;1.40;1.00;;;;;;;6.31;76.23;97880.41;5091780;28;41616;-76
2024/03/24 04:28:39;;;;;;;1.17;1.00;;;;;;;5.97;75.89;97829.03;5093674;28;42186;-78
2024/03/24 04:31:06;;;;;;;1.17;1.07;;;;;;;6.35;76.27;97887.16;5125698;27;40233;-79
2024/03/24 04:33:33;;;;;;;1.20;1.10;;;;;;;6.37;76.21;97880.03;5092288;28;40513;-81
2024/03/24 04:36:00;;;;;;;1.20;1.03;;;;;;;6.37;76.01;97875.63;5092171;28;43792;-78
2024/03/24 04:38:28;;;;;;;1.13;1.10;;;;;;;6.39;76.01;97883.44;5092384;28;42397;-82
2024/03/24 04:40:57;;;;;;;1.37;1.27;;;;;;;6.38;75.81;97879.09;5091862;28;39167;-78
2024/03/24 04:43:25;;;;;;;1.43;1.30;;;;;;;6.36;76.14;97878.34;5093119;28;41702;-79
2024/03/24 04:45:52;;;;;;;1.00;1.00;;;;;;;6.36;76.60;97878.34;5091725;28;41979;-80
2024/03/24 04:48:20;;;;;;;1.20;1.00;;;;;;;6.38;76.21;97868.59;5090988;28;42322;-79
2024/03/24 04:50:46;;;;;;;1.10;1.03;;;;;;;6.38;76.43;97877.31;5074577;28;42314;-76
2024/03/24 04:53:15;;;;;;;1.37;1.10;;;;;;;6.38;75.87;97868.59;5091881;28;42461;-76
2024/03/24 04:55:42;;;;;;;1.00;1.00;;;;;;;6.38;75.82;97866.81;5092688;28;43710;-76
2024/03/24 04:58:11;;;;;;;2.90;1.17;;;;;;;6.38;75.82;97871.22;5091766;28;43308;-79
2024/03/24 05:00:37;;;;;;;2.60;1.20;;;;;;;6.34;75.82;97854.78;5091573;28;39981;-78
2024/03/24 05:03:06;;;;;;;2.40;1.13;;;;;;;6.41;75.68;97865.78;5092075;28;42435;-76
2024/03/24 05:05:33;;;;;;;0.87;0.87;;;;;;;6.39;75.27;97859.75;5091543;28;43297;-75
2024/03/24 05:08:00;;;;;;;1.43;1.10;;;;;;;6.38;75.54;97873.84;5091905;28;42446;-77
2024/03/24 05:10:27;;;;;;;1.27;1.17;;;;;;;6.41;74.96;97879.78;5074043;28;38506;-77
2024/03/24 05:12:54;;;;;;;2.17;1.20;;;;;;;6.44;75.09;97886.59;5092505;28;41679;-76
2024/03/24 05:15:22;;;;;;;1.07;0.97;;;;;;;6.47;74.87;97884.63;5091142;28;42807;-79
2024/03/24 05:17:50;;;;;;;1.20;1.10;;;;;;;6.49;74.51;97892.44;5091447;28;42599;-77
2024/03/24 05:20:16;;;;;;;1.20;1.10;;;;;;;6.52;74.57;97892.25;5091374;28;39821;-80
2024/03/24 05:22:44;;;;;;;1.70;1.23;;;;;;;6.53;74.05;97891.31;5091521;28;42440;-78
2024/03/24 05:25:10;;;;;;;3.13;1.00;;;;;;;6.55;73.83;97889.44;5074287;28;42821;-78
2024/03/24 05:27:38;;;;;;;0.90;0.90;;;;;;;6.56;74.21;97896.38;5074315;28;42701;-82
2024/03/24 05:30:05;;;;;;;2.67;1.20;;;;;;;6.56;74.04;97891.09;5090204;28;39863;-78
2024/03/24 05:32:36;;;;;;;1.37;1.00;;;;;;;6.60;73.81;97897.88;5089199;28;42820;-79
2024/03/24 05:35:03;;;;;;;1.77;1.53;;;;;;;6.61;73.71;97889.03;5090907;28;41660;-80
2024/03/24 05:37:30;;;;;;;1.47;1.00;;;;;;;6.43;73.68;97859.47;5091901;28;42403;-81
2024/03/24 05:39:57;;;;;;;1.30;1.20;;;;;;;6.61;73.30;97894.31;5090485;28;39987;-80
2024/03/24 05:42:24;;;;;;;2.17;1.30;;;;;;;6.62;73.56;97887.25;5091199;28;40825;-78
2024/03/24 05:44:51;;;;;;;1.17;1.07;;;;;;;6.65;73.25;97885.31;5090734;28;42968;-78
2024/03/24 05:47:18;;;;;;;2.43;1.20;;;;;;;6.67;73.09;97893.94;5090964;28;42500;-77
2024/03/24 05:49:46;;;;;;;1.63;1.27;;;;;;;6.72;72.83;97889.22;5090760;28;40906;-82
2024/03/24 05:52:14;;;;;;;1.30;1.10;;;;;;;6.79;72.68;97889.69;5092067;28;42441;-78
2024/03/24 05:54:41;;;;;;;2.97;1.20;;;;;;;6.83;72.28;97893.81;5090413;28;43789;-80
2024/03/24 05:57:08;;;;;;;0.80;0.80;;;;;;;6.87;71.79;97894.47;5091669;28;42334;-79
2024/03/24 05:59:34;;;;;;;1.17;1.07;;;;;;;6.88;71.61;97886.47;5091575;28;40176;-76
2024/03/24 06:02:02;;;;;;;1.40;0.87;;;;;;;6.78;71.58;97891.50;5090842;28;42557;-79
2024/03/24 06:04:30;;;;;;;2.63;1.30;;;;;;;6.72;71.69;97891.00;5090698;28;42812;-80
2024/03/24 06:06:59;;;;;;;1.17;1.00;;;;;;;6.66;71.48;97884.34;5073560;28;42432;-77
2024/03/24 06:09:26;;;;;;;0.80;0.80;;;;;;;6.61;71.52;97886.41;5073900;28;38481;-76
2024/03/24 06:11:53;;;;;;;2.77;1.30;;;;;;;6.64;71.68;97899.38;5091784;28;41728;-78
2024/03/24 06:14:20;;;;;;;2.93;1.07;;;;;;;6.59;71.84;97869.03;5091531;28;42979;-79
2024/03/24 06:16:48;;;;;;;2.00;1.30;;;;;;;6.84;71.62;97896.34;5090472;28;43213;-78
2024/03/24 06:19:14;;;;;;;0.90;0.90;;;;;;;6.92;71.53;97900.31;5090687;28;40673;-78
2024/03/24 06:21:42;;;;;;;1.27;1.07;;;;;;;7.00;70.68;97900.66;5092199;28;42764;-81
2024/03/24 06:24:09;;;;;;;1.30;1.20;;;;;;;7.07;70.55;97900.16;5094224;28;43732;-80
2024/03/24 06:26:37;;;;;;;1.37;1.20;;;;;;;7.11;69.58;97903.44;5076786;28;40400;-78
2024/03/24 06:29:03;;;;;;;0.77;0.77;;;;;;;7.10;69.67;97907.03;5094262;28;41060;-78
2024/03/24 06:31:31;;;;;;;0.90;0.80;;;;;;;7.12;69.58;97920.94;5076598;28;40720;-78
2024/03/24 06:33:59;;;;;;;0.87;0.80;;;;;;;7.03;68.89;97919.75;5094414;28;43701;-77
2024/03/24 06:36:27;;;;;;;0.93;0.83;;;;;;;7.18;69.49;97910.00;5093434;28;41217;-78
2024/03/24 06:38:53;;;;;;;0.50;0.50;;;;;;;7.38;69.08;97914.84;5095065;28;39932;-78
2024/03/24 06:41:23;;;;;;;1.00;0.80;;;;;;;7.50;68.49;97902.66;5093293;28;40251;-78
2024/03/24 06:43:49;;;;;;;1.73;1.03;;;;;;;7.86;67.70;97928.38;5094395;28;42940;-78
2024/03/24 06:46:16;;;;;;;0.80;0.80;;;;;;;8.23;66.25;97921.50;5076203;28;42324;-79
2024/03/24 06:48:43;;;;;;;1.17;0.73;;;;;;;8.78;64.28;97929.09;5093931;28;39960;-79
2024/03/24 06:51:10;;;;;;;0.77;0.77;;;;;;;8.99;63.75;97906.50;5093227;28;42652;-81
2024/03/24 06:53:37;;;;;;;2.10;1.00;;;;;;;9.27;62.08;97933.56;5093769;28;43957;-82
2024/03/24 06:56:05;;;;;;;1.90;0.70;;;;;;;9.30;60.01;97942.09;5076267;28;43751;-79
2024/03/24 06:58:33;;;;;;;1.20;1.00;;;;;;;9.29;60.77;97942.22;5093650;28;40173;-79
2024/03/24 07:01:01;;;;;;;0.73;0.70;;;;;;;9.23;60.10;97947.94;5093203;28;40755;-78
2024/03/24 07:03:27;;;;;;;1.23;0.87;;;;;;;9.04;59.22;97945.75;5094369;28;42795;-76
2024/03/24 07:05:55;;;;;;;2.10;0.90;;;;;;;8.73;58.58;97920.69;5094005;28;42346;-79
2024/03/24 07:08:21;;;;;;;0.80;0.80;;;;;;;8.81;59.54;97938.59;5093537;28;40060;-81
2024/03/24 07:10:52;;;;;;;0.73;0.73;;;;;;;8.93;58.82;97933.31;5094180;28;42073;-77
2024/03/24 07:13:18;;;;;;;1.37;0.87;;;;;;;9.45;57.58;97940.16;5076503;28;41499;-78
2024/03/24 07:15:47;;;;;;;1.13;1.00;;;;;;;9.79;56.02;97948.25;5093769;28;42337;-78
2024/03/24 07:18:13;;;;;;;1.03;1.03;;;;;;;10.15;54.78;97945.50;5092881;28;41017;-81
2024/03/24 07:20:41;;;;;;;2.87;1.00;;;;;;;10.46;54.48;97961.75;5092881;28;42709;-78
2024/03/24 07:23:07;;;;;;;1.43;0.90;;;;;;;10.50;53.87;97957.94;5093114;28;42693;-77
2024/03/24 07:25:35;;;;;;;0.90;0.90;;;;;;;10.31;53.77;97964.59;5075743;28;41011;-82
2024/03/24 07:28:02;;;;;;;2.23;0.73;;;;;;;10.13;53.41;97973.91;5094363;28;39922;-77
2024/03/24 07:30:29;;;;;;;0.73;0.70;;;;;;;10.00;54.14;97967.84;5091957;28;40498;-82
2024/03/24 07:32:57;;;;;;;1.97;1.20;;;;;;;10.02;54.41;97955.31;5092273;28;44530;-79
2024/03/24 07:35:25;;;;;;;1.50;0.83;;;;;;;10.04;54.63;97958.69;5092439;28;43433;-78
2024/03/24 07:37:51;;;;;;;1.17;0.80;;;;;;;9.91;54.74;97963.22;5093217;28;39823;-78
2024/03/24 07:40:18;;;;;;;1.70;1.10;;;;;;;9.60;54.66;97957.56;5093330;28;42577;-79
2024/03/24 07:42:45;;;;;;;1.27;0.73;;;;;;;9.58;55.53;97953.31;5075659;28;41524;-78
2024/03/24 07:45:13;;;;;;;0.70;0.70;;;;;;;9.63;55.43;97941.47;5093696;28;43227;-81
2024/03/24 07:47:39;;;;;;;1.37;1.00;;;;;;;9.98;54.58;97951.25;5075842;28;38860;-78
2024/03/24 07:50:09;;;;;;;0.90;0.90;;;;;;;10.56;53.03;97965.38;5075557;28;40825;-79
2024/03/24 07:52:36;;;;;;;0.80;0.80;;;;;;;10.90;52.71;97964.47;5093448;28;43023;-77
2024/03/24 07:55:04;;;;;;;1.13;0.90;;;;;;;10.90;51.68;97964.47;5093662;28;42635;-81
2024/03/24 07:57:30;;;;;;;1.57;1.00;;;;;;;10.80;52.01;97959.03;5091541;28;39281;-80
2024/03/24 07:59:57;;;;;;;1.27;0.90;;;;;;;10.65;52.06;97969.97;5073622;28;42971;-80
2024/03/24 08:02:24;;;;;;;1.40;0.90;;;;;;;10.49;51.90;97969.47;5091268;28;41612;-76
2024/03/24 08:04:51;;;;;;;1.83;0.90;;;;;;;10.38;52.60;97947.31;5073890;28;41119;-79
2024/03/24 08:07:19;;;;;;;1.93;1.10;;;;;;;10.48;52.82;97941.31;5092386;28;41892;-81
2024/03/24 08:09:47;;;;;;;1.67;1.10;;;;;;;10.39;52.70;97948.97;5090833;28;41864;-79
2024/03/24 08:12:13;;;;;;;1.93;0.93;;;;;;;10.33;52.71;97951.25;5091965;28;42724;-81
2024/03/24 08:14:42;;;;;;;1.60;1.30;;;;;;;10.21;52.71;97955.69;5092064;28;43195;-81
2024/03/24 08:17:09;;;;;;;1.90;1.07;;;;;;;10.25;52.92;97954.50;5092088;28;39987;-79
2024/03/24 08:19:36;;;;;;;3.73;1.20;;;;;;;10.34;53.04;97948.50;5093304;28;42184;-78
2024/03/24 08:22:03;;;;;;;1.57;1.27;;;;;;;10.33;53.25;97949.47;5091899;28;42878;-79
2024/03/24 08:24:32;;;;;;;1.27;1.07;;;;;;;10.22;53.97;97959.16;5074813;28;42341;-79
2024/03/24 08:26:58;;;;;;;3.10;1.40;;;;;;;9.90;54.62;97940.38;5093221;28;40043;-78
2024/03/24 08:29:26;;;;;;;1.77;1.07;;;;;;;9.58;56.03;97924.25;5074693;28;43829;-79
2024/03/24 08:31:52;;;;;;;1.43;1.20;;;;;;;9.66;56.79;97928.00;5074672;28;43162;-78
2024/03/24 08:34:19;;;;;;;2.13;1.20;;;;;;;9.60;57.67;97932.91;5092002;28;42228;-79
2024/03/24 08:36:46;;;;;;;2.40;1.40;;;;;;;9.53;58.10;97935.16;5091543;28;40187;-77
2024/03/24 08:39:14;;;;;;;1.23;1.13;;;;;;;9.52;58.02;97940.56;5092576;28;21146;-82
2024/03/24 08:41:42;;;;;;;1.63;1.53;;;;;;;9.38;58.02;97931.00;5092714;28;44270;-80
2024/03/24 08:44:12;;;;;;;1.27;1.17;;;;;;;9.29;59.00;97931.63;5107591;27;42631;-81
2024/03/24 08:46:39;;;;;;;1.50;1.27;;;;;;;9.19;58.34;97938.53;5074736;28;38784;-81
2024/03/24 08:49:07;;;;;;;2.83;1.63;;;;;;;9.06;59.64;97927.16;5091523;28;42717;-79
2024/03/24 08:51:33;;;;;;;2.63;1.43;;;;;;;8.97;60.12;97913.66;5074047;28;42977;-79
2024/03/24 08:54:01;;;;;;;1.40;1.17;;;;;;;9.09;60.36;97922.50;5125367;27;42578;-80
2024/03/24 08:56:27;;;;;;;2.13;1.50;;;;;;;9.05;60.17;97917.56;5091164;28;39748;-78
2024/03/24 08:58:56;;;;;;;1.73;1.40;;;;;;;9.00;60.70;97918.75;5074379;28;42131;-78
2024/03/24 09:01:22;;;;;;;1.83;1.23;;;;;;;9.04;60.30;97919.34;5074325;28;43181;-80
2024/03/24 09:03:50;;;;;;;2.03;1.37;;;;;;;9.12;59.87;97902.97;5074617;28;42227;-78
2024/03/24 09:06:16;;;;;;;1.33;1.07;;;;;;;9.42;60.15;97916.59;5092705;28;40259;-78
2024/03/24 09:08:44;;;;;;;1.43;1.00;;;;;;;9.52;59.74;97914.94;5091811;28;42043;-81
2024/03/24 09:11:10;;;;;;;2.70;1.23;;;;;;;9.64;60.49;97914.06;5090749;28;42447;-77
2024/03/24 09:13:38;;;;;;;1.93;1.60;;;;;;;9.70;60.61;97897.75;5074045;28;41422;-79
2024/03/24 09:16:06;;;;;;;2.90;1.47;;;;;;;10.02;59.82;97915.66;5092193;28;40274;-79
2024/03/24 09:18:34;;;;;;;2.17;1.10;;;;;;;10.18;59.95;97929.44;5090893;28;41759;-78
2024/03/24 09:21:04;;;;;;;1.63;1.40;;;;;;;10.19;59.61;97928.50;5073876;28;41735;-78
2024/03/24 09:23:32;;;;;;;1.30;1.20;;;;;;;10.22;59.91;97933.56;5091248;28;43019;-78
2024/03/24 09:25:58;;;;;;;1.50;1.23;;;;;;;10.20;59.42;97927.53;5090669;28;39755;-80
2024/03/24 09:28:26;;;;;;;1.80;1.40;;;;;;;9.92;60.54;97914.66;5090847;28;40627;-81
2024/03/24 09:30:56;;;;;;;2.40;1.23;;;;;;;9.84;61.23;97914.41;5091367;28;42821;-79
2024/03/24 09:33:26;;;;;;;2.67;1.33;;;;;;;9.84;61.99;97930.25;5074318;28;41171;-79
2024/03/24 09:35:53;;;;;;;1.43;1.20;;;;;;;9.79;62.20;97911.25;5090873;28;40017;-80
2024/03/24 09:38:24;;;;;;;2.03;1.80;;;;;;;9.80;63.29;97907.63;5090767;28;40477;-77
2024/03/24 09:40:51;;;;;;;1.63;1.43;;;;;;;9.73;63.01;97901.97;5090276;28;42968;-79
2024/03/24 09:43:18;;;;;;;1.70;1.37;;;;;;;9.86;62.88;97913.34;5090637;28;41630;-77
2024/03/24 09:45:45;;;;;;;2.53;1.70;;;;;;;10.04;62.51;97911.09;5091532;28;40914;-77
2024/03/24 09:48:13;;;;;;;2.03;1.47;;;;;;;10.39;60.72;97922.50;5090738;28;42363;-78
2024/03/24 09:50:42;;;;;;;2.37;1.80;;;;;;;10.73;60.26;97919.94;5090317;28;42790;-80
2024/03/24 09:53:11;;;;;;;2.37;1.63;;;;;;;11.11;59.63;97923.06;5090467;28;42169;-79
2024/03/24 09:55:38;;;;;;;3.40;1.87;;;;;;;11.46;58.11;97920.22;5092353;28;40000;-80
2024/03/24 09:58:06;;;;;;;3.50;1.83;;;;;;;11.61;57.74;97923.44;5094528;28;41927;-78
2024/03/24 10:00:33;;;;;;;1.37;1.23;;;;;;;11.53;58.54;97916.09;5093278;28;43769;-81
2024/03/24 10:03:00;;;;;;;1.80;1.47;;;;;;;11.39;58.67;97921.66;5095393;28;42431;-80
2024/03/24 10:05:28;;;;;;;3.33;1.70;;;;;;;11.18;59.31;97919.91;5094205;28;39778;-76
2024/03/24 10:08:00;;;;;;;3.43;2.13;;;;;;;11.16;60.67;97904.97;5093884;28;42314;-77
2024/03/24 10:10:26;;;;;;;4.27;1.90;;;;;;;10.99;60.54;97905.47;5093690;28;41603;-78
2024/03/24 10:12:55;;;;;;;1.90;1.60;;;;;;;10.94;60.52;97906.78;5093885;28;42333;-77
2024/03/24 10:15:23;;;;;;;1.97;1.73;;;;;;;10.91;60.93;97901.72;5095200;28;40267;-76
2024/03/24 10:18:04;;;;;;;2.97;1.77;;;;;;;11.09;60.46;97917.03;5076719;28;43966;-79
2024/03/24 10:20:31;;;;;;;2.73;1.57;;;;;;;11.22;58.96;97902.81;5076776;28;41788;-78
2024/03/24 10:23:00;;;;;;;3.47;1.80;;;;;;;11.38;58.52;97905.88;5094926;28;42899;-76
2024/03/24 10:25:28;;;;;;;2.27;1.47;;;;;;;11.80;57.31;97902.41;5094802;28;40277;-76
2024/03/24 10:27:57;;;;;;;3.33;1.80;;;;;;;12.34;56.72;97909.41;5093452;28;42972;-78
2024/03/24 10:30:24;;;;;;;2.73;1.60;;;;;;;12.44;55.33;97923.56;5076059;28;43536;-81
2024/03/24 10:32:52;;;;;;;1.80;1.30;;;;;;;12.26;55.88;97914.50;5093466;28;42521;-76
2024/03/24 10:35:19;;;;;;;2.50;1.60;;;;;;;11.82;56.71;97911.09;5093298;28;39287;-80
2024/03/24 10:37:46;;;;;;;1.53;1.43;;;;;;;11.40;58.11;97901.31;5076698;28;40571;-83
2024/03/24 10:40:14;;;;;;;1.33;1.23;;;;;;;10.94;58.92;97886.44;5092937;28;43216;-82
2024/03/24 10:42:48;;;;;;;1.23;1.13;;;;;;;10.84;58.59;97896.09;5095004;28;42630;-78
2024/03/24 10:45:22;;;;;;;2.33;1.17;;;;;;;10.83;60.46;97882.97;5093291;28;39019;-79
2024/03/24 10:47:54;;;;;;;2.70;1.20;;;;;;;10.83;60.47;97891.75;5076594;28;41025;-77
2024/03/24 10:50:22;;;;;;;4.33;1.50;;;;;;;10.94;59.88;97885.59;5092420;28;43512;-78
2024/03/24 10:52:56;;;;;;;1.63;1.40;;;;;;;11.35;59.40;97884.94;5094619;28;43276;-76
2024/03/24 10:55:25;;;;;;;2.20;1.10;;;;;;;11.78;58.03;97867.22;5075926;28;39826;-76
2024/03/24 10:57:53;;;;;;;2.53;1.53;;;;;;;12.62;55.98;97885.75;5075910;28;42366;-78
2024/03/24 11:00:27;;;;;;;1.33;1.23;;;;;;;12.88;54.38;97902.94;5109386;28;41695;-77
2024/03/24 11:02:55;;;;;;;1.57;1.20;;;;;;;12.89;54.02;97896.66;5093157;28;44088;-77
2024/03/24 11:05:23;;;;;;;2.27;1.73;;;;;;;12.73;52.59;97902.50;5093312;28;39953;-81
2024/03/24 11:07:50;;;;;;;2.77;1.63;;;;;;;12.37;54.18;97892.34;5092065;28;40787;-79
2024/03/24 11:10:19;;;;;;;1.63;1.53;;;;;;;12.13;54.47;97888.13;5109510;28;41334;-77
2024/03/24 11:12:47;;;;;;;2.87;1.60;;;;;;;11.85;55.76;97889.63;5092891;28;41806;-80
2024/03/24 11:15:15;;;;;;;1.40;1.30;;;;;;;11.37;55.58;97860.00;5075931;28;39217;-78
2024/03/24 11:17:41;;;;;;;2.23;1.23;;;;;;;11.38;57.46;97874.06;5092691;28;43443;-77
2024/03/24 11:20:17;;;;;;;1.47;1.33;;;;;;;11.32;58.06;97880.72;5093841;28;42961;-80
2024/03/24 11:22:44;;;;;;;1.37;1.27;;;;;;;11.38;57.59;97866.97;5075375;28;42756;-76
2024/03/24 11:25:12;;;;;;;3.47;1.53;;;;;;;11.60;56.55;97857.28;5126325;27;41952;-76
2024/03/24 11:27:39;;;;;;;1.47;1.37;;;;;;;11.97;55.79;97876.31;5092462;28;40721;-79
2024/03/24 11:30:12;;;;;;;3.33;1.50;;;;;;;12.17;56.10;97863.03;5074818;28;41615;-77
2024/03/24 11:32:48;;;;;;;2.10;1.63;;;;;;;12.29;54.25;97870.91;5092749;28;42691;-79
2024/03/24 11:35:19;;;;;;;2.93;1.27;;;;;;;12.17;54.66;97872.81;5092346;28;38919;-81
2024/03/24 11:37:49;;;;;;;1.63;1.53;;;;;;;12.33;54.11;97873.19;5075492;28;41894;-79
2024/03/24 11:40:17;;;;;;;3.03;1.73;;;;;;;12.41;52.70;97878.69;5091717;28;42349;-76